createdAt,value
2019-05-05T00:01:37.442Z,0.80
2019-05-05T00:04:39.091Z,0.80
2019-05-05T00:07:09.661Z,0.80
2019-05-05T00:09:39.940Z,0.80
2019-05-05T00:12:22.186Z,0.80
2019-05-05T00:15:05.789Z,0.80
2019-05-05T00:17:36.119Z,0.80
2019-05-05T00:20:10.981Z,0.80
2019-05-05T00:22:41.335Z,0.80
2019-05-05T00:25:11.670Z,0.80
2019-05-05T00:27:41.929Z,0.80
2019-05-05T00:30:14.303Z,0.80
2019-05-05T00:32:44.746Z,0.80
2019-05-05T00:35:15.271Z,0.80
2019-05-05T00:37:45.595Z,0.80
2019-05-05T00:40:16.315Z,0.80
2019-05-05T00:42:46.589Z,0.80
2019-05-05T00:45:17.001Z,0.80
2019-05-05T00:47:55.159Z,0.80
2019-05-05T00:50:25.461Z,0.80
2019-05-05T00:52:55.729Z,0.80
2019-05-05T00:55:26.081Z,0.80
2019-05-05T00:57:56.263Z,0.80
2019-05-05T01:00:51.940Z,0.80
2019-05-05T01:03:24.340Z,0.80
2019-05-05T01:06:12.301Z,0.80
2019-05-05T01:08:44.436Z,0.80
2019-05-05T01:11:15.102Z,0.80
2019-05-05T01:13:45.652Z,0.80
2019-05-05T01:16:16.082Z,0.80
2019-05-05T01:18:46.275Z,0.80
2019-05-05T01:21:16.509Z,0.80
2019-05-05T01:23:46.670Z,0.80
2019-05-05T01:26:16.916Z,0.80
2019-05-05T01:28:47.206Z,0.80
2019-05-05T01:31:19.133Z,0.80
2019-05-05T01:34:05.386Z,0.80
2019-05-05T01:36:35.623Z,0.80
2019-05-05T01:39:27.147Z,0.80
2019-05-05T01:42:00.554Z,0.80
2019-05-05T01:44:30.777Z,0.90
2019-05-05T01:47:01.034Z,0.80
2019-05-05T01:49:31.335Z,0.80
2019-05-05T01:52:01.606Z,0.80
2019-05-05T01:54:31.807Z,0.80
2019-05-05T01:57:02.259Z,0.80
2019-05-05T01:59:35.220Z,0.70
2019-05-05T02:02:14.701Z,0.80
2019-05-05T02:04:45.179Z,0.80
2019-05-05T02:07:15.460Z,0.80
2019-05-05T02:09:45.735Z,0.80
2019-05-05T02:12:16.096Z,0.80
2019-05-05T02:14:46.380Z,0.80
2019-05-05T02:17:16.593Z,0.80
2019-05-05T02:19:46.861Z,0.80
2019-05-05T02:22:17.068Z,0.80
2019-05-05T02:24:47.455Z,0.80
2019-05-05T02:27:19.650Z,0.80
2019-05-05T02:30:17.575Z,0.80
2019-05-05T02:33:06.267Z,0.80
2019-05-05T02:35:35.889Z,0.80
2019-05-05T02:38:06.742Z,0.80
2019-05-05T02:40:37.666Z,0.70
2019-05-05T02:43:08.687Z,0.80
2019-05-05T02:46:25.073Z,0.70
2019-05-05T02:48:55.673Z,0.80
2019-05-05T02:51:27.410Z,0.90
2019-05-05T02:53:59.348Z,0.80
2019-05-05T02:56:35.846Z,0.80
2019-05-05T02:59:10.078Z,0.80
2019-05-05T03:01:47.087Z,0.80
2019-05-05T03:04:18.441Z,0.80
2019-05-05T03:06:51.619Z,0.80
2019-05-05T03:09:24.374Z,0.80
2019-05-05T03:11:57.107Z,0.80
2019-05-05T03:14:29.250Z,0.80
2019-05-05T03:16:59.831Z,0.80
2019-05-05T03:19:30.054Z,0.80
2019-05-05T03:22:00.627Z,0.80
2019-05-05T03:24:34.126Z,0.80
2019-05-05T03:27:04.675Z,0.80
2019-05-05T03:29:34.866Z,0.80
2019-05-05T03:32:05.947Z,0.80
2019-05-05T03:34:37.736Z,0.80
2019-05-05T03:37:08.967Z,0.80
2019-05-05T03:39:41.595Z,0.80
2019-05-05T03:42:30.929Z,0.80
2019-05-05T03:45:09.084Z,0.80
2019-05-05T03:47:39.947Z,0.80
2019-05-05T03:50:10.439Z,0.80
2019-05-05T03:52:41.008Z,0.80
2019-05-05T03:55:13.641Z,0.80
2019-05-05T03:57:44.625Z,0.80
2019-05-05T04:00:23.586Z,0.80
2019-05-05T04:03:05.831Z,0.80
2019-05-05T04:05:44.431Z,0.80
2019-05-05T04:08:14.880Z,0.80
2019-05-05T04:10:45.640Z,0.80
2019-05-05T04:13:16.654Z,0.80
2019-05-05T04:16:05.858Z,0.80
2019-05-05T04:18:40.824Z,0.80
2019-05-05T04:21:11.104Z,0.80
2019-05-05T04:23:41.452Z,0.80
2019-05-05T04:26:11.639Z,0.80
2019-05-05T04:28:43.627Z,0.80
2019-05-05T04:31:13.937Z,0.80
2019-05-05T04:33:44.572Z,0.80
2019-05-05T04:36:14.861Z,0.80
2019-05-05T04:38:45.160Z,0.83
2019-05-05T04:41:15.318Z,0.80
2019-05-05T04:43:45.513Z,0.80
2019-05-05T04:46:15.690Z,0.80
2019-05-05T04:48:54.302Z,0.80
2019-05-05T04:51:27.918Z,0.80
2019-05-05T04:54:26.509Z,0.80
2019-05-05T04:56:56.821Z,0.80
2019-05-05T04:59:27.109Z,0.80
2019-05-05T05:02:00.892Z,0.80
2019-05-05T05:04:50.155Z,0.80
2019-05-05T05:07:20.429Z,0.80
2019-05-05T05:09:50.631Z,0.80
2019-05-05T05:12:20.801Z,0.80
2019-05-05T05:14:50.987Z,0.80
2019-05-05T05:17:26.807Z,0.80
2019-05-05T05:19:57.036Z,0.80
2019-05-05T05:22:27.278Z,0.70
2019-05-05T05:24:57.471Z,0.80
2019-05-05T05:27:27.673Z,0.80
2019-05-05T05:29:57.898Z,0.80
2019-05-05T05:32:28.099Z,0.73
2019-05-05T05:34:58.286Z,0.80
2019-05-05T05:37:28.484Z,0.80
2019-05-05T05:40:20.673Z,0.80
2019-05-05T05:42:50.782Z,0.80
2019-05-05T05:45:40.024Z,0.80
2019-05-05T05:48:43.363Z,0.80
2019-05-05T05:51:19.098Z,0.80
2019-05-05T05:53:47.871Z,0.80
2019-05-05T05:56:18.193Z,0.80
2019-05-05T05:58:48.377Z,0.80
2019-05-05T06:01:18.627Z,0.80
2019-05-05T06:03:48.885Z,0.80
2019-05-05T06:06:19.238Z,0.80
2019-05-05T06:08:49.570Z,0.80
2019-05-05T06:11:19.879Z,0.80
2019-05-05T06:13:50.173Z,0.80
2019-05-05T06:16:20.451Z,0.80
2019-05-05T06:18:50.767Z,0.80
2019-05-05T06:21:21.071Z,0.80
2019-05-05T06:23:51.345Z,0.80
2019-05-05T06:26:23.864Z,0.80
2019-05-05T06:28:54.070Z,0.80
2019-05-05T06:31:24.634Z,0.80
2019-05-05T06:33:55.013Z,0.80
2019-05-05T06:36:25.313Z,0.80
2019-05-05T06:38:55.469Z,0.80
2019-05-05T06:41:38.091Z,0.80
2019-05-05T06:44:27.326Z,0.80
2019-05-05T06:47:05.673Z,0.80
2019-05-05T06:49:36.003Z,0.80
2019-05-05T06:52:06.269Z,0.70
2019-05-05T06:54:36.493Z,0.80
2019-05-05T06:57:06.902Z,0.80
2019-05-05T06:59:37.193Z,0.80
2019-05-05T07:02:07.677Z,0.80
2019-05-05T07:04:37.853Z,0.80
2019-05-05T07:07:08.212Z,0.80
2019-05-05T07:09:38.477Z,0.70
2019-05-05T07:12:08.791Z,0.70
2019-05-05T07:14:38.947Z,0.80
2019-05-05T07:17:09.177Z,0.80
2019-05-05T07:19:39.473Z,0.70
2019-05-05T07:22:09.697Z,0.70
2019-05-05T07:24:39.883Z,0.80
2019-05-05T07:27:10.188Z,0.80
2019-05-05T07:29:40.453Z,0.80
2019-05-05T07:32:10.715Z,0.80
2019-05-05T07:35:04.122Z,0.80
2019-05-05T07:37:34.623Z,0.80
2019-05-05T07:40:05.733Z,0.80
2019-05-05T07:42:35.949Z,0.80
2019-05-05T07:45:19.372Z,0.70
2019-05-05T07:47:39.087Z,0.80
2019-05-05T07:50:18.971Z,0.80
2019-05-05T07:52:41.225Z,0.80
2019-05-05T07:55:11.465Z,0.70
2019-05-05T07:57:43.461Z,0.70
2019-05-05T08:00:14.807Z,0.80
2019-05-05T08:02:45.246Z,0.80
2019-05-05T08:05:15.522Z,0.80
2019-05-05T08:07:45.886Z,0.70
2019-05-05T08:10:16.294Z,0.70
2019-05-05T08:12:46.662Z,0.80
2019-05-05T08:15:18.918Z,0.80
2019-05-05T08:18:08.177Z,0.70
2019-05-05T08:20:41.566Z,0.80
2019-05-05T08:23:31.786Z,0.70
2019-05-05T08:26:08.803Z,0.80
2019-05-05T08:28:44.497Z,0.80
2019-05-05T08:31:24.867Z,0.80
2019-05-05T08:33:54.749Z,0.80
2019-05-05T08:36:25.296Z,0.80
2019-05-05T08:38:55.638Z,0.73
2019-05-05T08:41:25.822Z,0.70
2019-05-05T08:43:56.128Z,0.80
2019-05-05T08:46:26.451Z,0.80
2019-05-05T08:48:56.785Z,0.80
2019-05-05T08:51:27.076Z,0.80
2019-05-05T08:53:57.329Z,0.70
2019-05-05T08:56:27.547Z,0.70
2019-05-05T08:58:57.787Z,0.80
2019-05-05T09:01:28.106Z,0.70
2019-05-05T09:03:58.329Z,0.70
2019-05-05T09:06:28.604Z,0.70
2019-05-05T09:08:58.951Z,0.70
2019-05-05T09:11:29.181Z,0.80
2019-05-05T09:13:59.492Z,0.80
2019-05-05T09:16:29.734Z,0.80
2019-05-05T09:19:04.145Z,0.80
2019-05-05T09:21:34.704Z,0.70
2019-05-05T09:24:24.851Z,0.70
2019-05-05T09:27:05.020Z,0.70
2019-05-05T09:29:37.822Z,0.70
2019-05-05T09:32:08.168Z,0.70
2019-05-05T09:34:38.532Z,0.70
2019-05-05T09:37:08.672Z,0.70
2019-05-05T09:39:39.806Z,0.70
2019-05-05T09:42:09.974Z,0.70
2019-05-05T09:44:40.290Z,0.70
2019-05-05T09:47:10.602Z,0.70
2019-05-05T09:49:40.949Z,0.70
2019-05-05T09:52:11.115Z,0.70
2019-05-05T09:54:43.675Z,0.70
2019-05-05T09:57:14.586Z,0.70
2019-05-05T09:59:45.072Z,0.70
2019-05-05T10:02:15.518Z,0.70
2019-05-05T10:04:45.746Z,0.70
2019-05-05T10:07:16.011Z,0.70
2019-05-05T10:09:46.421Z,0.70
2019-05-05T10:12:16.752Z,0.70
2019-05-05T10:14:46.970Z,0.63
2019-05-05T10:17:17.175Z,0.70
2019-05-05T10:19:47.363Z,0.70
2019-05-05T10:22:17.559Z,0.70
2019-05-05T10:24:56.780Z,0.70
2019-05-05T10:27:25.146Z,0.70
2019-05-05T10:29:55.552Z,0.70
2019-05-05T10:32:25.755Z,0.70
2019-05-05T10:35:04.544Z,0.70
2019-05-05T10:37:35.302Z,0.70
2019-05-05T10:40:08.067Z,0.73
2019-05-05T10:42:50.724Z,0.70
2019-05-05T10:45:24.518Z,0.70
2019-05-05T10:47:54.879Z,0.70
2019-05-05T10:50:25.241Z,0.70
2019-05-05T10:52:55.616Z,0.70
2019-05-05T10:55:25.958Z,0.70
2019-05-05T10:57:56.124Z,0.70
2019-05-05T11:00:39.910Z,0.70
2019-05-05T11:03:10.419Z,0.70
2019-05-05T11:05:40.811Z,0.70
2019-05-05T11:08:13.460Z,0.70
2019-05-05T11:10:44.891Z,0.70
2019-05-05T11:13:15.038Z,0.70
2019-05-05T11:15:45.277Z,0.70
2019-05-05T11:18:15.632Z,0.70
2019-05-05T11:20:45.785Z,0.70
2019-05-05T11:23:16.023Z,0.70
2019-05-05T11:25:46.193Z,0.70
2019-05-05T11:28:16.524Z,0.70
2019-05-05T11:30:46.973Z,0.70
2019-05-05T11:33:51.607Z,0.70
2019-05-05T11:36:35.528Z,0.70
2019-05-05T11:39:07.845Z,0.70
2019-05-05T11:41:38.219Z,0.70
2019-05-05T11:44:08.417Z,0.70
2019-05-05T11:46:38.712Z,0.70
2019-05-05T11:49:08.973Z,0.67
2019-05-05T11:51:39.381Z,0.70
2019-05-05T11:54:09.691Z,0.70
2019-05-05T11:56:39.949Z,0.70
2019-05-05T11:59:10.153Z,0.70
2019-05-05T12:01:44.078Z,0.70
2019-05-05T12:04:15.223Z,0.70
2019-05-05T12:06:45.484Z,0.60
2019-05-05T12:09:24.982Z,0.70
2019-05-05T12:11:55.205Z,0.70
2019-05-05T12:14:27.735Z,0.70
2019-05-05T12:16:58.017Z,0.70
2019-05-05T12:19:28.375Z,0.70
2019-05-05T12:21:58.551Z,0.70
2019-05-05T12:24:33.883Z,0.70
2019-05-05T12:27:33.896Z,0.70
2019-05-05T12:30:10.185Z,0.70
2019-05-05T12:32:40.357Z,0.70
2019-05-05T12:35:10.820Z,0.70
2019-05-05T12:37:41.171Z,0.70
2019-05-05T12:40:11.519Z,0.70
2019-05-05T12:42:43.868Z,0.70
2019-05-05T12:45:18.107Z,0.70
2019-05-05T12:48:06.141Z,0.70
2019-05-05T12:50:36.372Z,0.70
2019-05-05T12:53:06.592Z,0.70
2019-05-05T12:55:41.372Z,0.70
2019-05-05T12:58:08.885Z,0.70
2019-05-05T13:00:40.701Z,0.60
2019-05-05T13:03:13.502Z,0.70
2019-05-05T13:05:44.628Z,0.60
2019-05-05T13:08:14.935Z,0.70
2019-05-05T13:10:45.373Z,0.60
2019-05-05T13:13:15.586Z,0.70
2019-05-05T13:15:45.804Z,0.60
2019-05-05T13:18:16.067Z,0.70
2019-05-05T13:20:57.621Z,0.70
2019-05-05T13:23:46.142Z,0.70
2019-05-05T13:26:28.521Z,0.60
2019-05-05T13:28:58.739Z,0.60
2019-05-05T13:31:28.923Z,0.70
2019-05-05T13:33:59.108Z,0.60
2019-05-05T13:36:29.494Z,0.60
2019-05-05T13:38:59.698Z,0.60
2019-05-05T13:41:30.031Z,0.60
2019-05-05T13:44:01.874Z,0.67
2019-05-05T13:46:33.945Z,0.60
2019-05-05T13:49:32.370Z,0.60
2019-05-05T13:52:04.766Z,0.60
2019-05-05T13:54:35.311Z,0.60
2019-05-05T13:57:05.579Z,0.60
2019-05-05T13:59:35.945Z,0.60
2019-05-05T14:02:06.385Z,0.60
2019-05-05T14:04:36.567Z,0.60
2019-05-05T14:07:06.861Z,0.60
2019-05-05T14:09:37.224Z,0.60
2019-05-05T14:12:07.440Z,0.60
2019-05-05T14:14:37.690Z,0.70
2019-05-05T14:17:08.023Z,0.60
2019-05-05T14:19:38.241Z,0.60
2019-05-05T14:22:08.597Z,0.60
2019-05-05T14:24:48.553Z,0.60
2019-05-05T14:27:18.858Z,0.60
2019-05-05T14:30:09.616Z,0.60
2019-05-05T14:32:40.357Z,0.70
2019-05-05T14:35:18.049Z,0.60
2019-05-05T14:37:53.501Z,0.70
2019-05-05T14:40:23.793Z,0.60
2019-05-05T14:42:54.072Z,0.63
2019-05-05T14:45:24.433Z,0.60
2019-05-05T14:47:54.643Z,0.70
2019-05-05T14:50:24.883Z,0.70
2019-05-05T14:52:55.143Z,0.60
2019-05-05T14:55:25.640Z,0.60
2019-05-05T14:57:55.894Z,0.67
2019-05-05T15:00:26.872Z,0.70
2019-05-05T15:02:57.107Z,0.60
2019-05-05T15:05:44.270Z,0.60
2019-05-05T15:08:43.893Z,0.60
2019-05-05T15:11:33.858Z,0.70
2019-05-05T15:14:06.859Z,0.70
2019-05-05T15:16:36.357Z,0.70
2019-05-05T15:19:06.704Z,0.70
2019-05-05T15:21:36.876Z,0.70
2019-05-05T15:24:07.126Z,0.70
2019-05-05T15:26:49.118Z,0.70
2019-05-05T15:29:09.407Z,0.70
2019-05-05T15:31:39.761Z,0.60
2019-05-05T15:34:09.930Z,0.70
2019-05-05T15:36:40.156Z,0.70
2019-05-05T15:39:10.367Z,0.70
2019-05-05T15:41:41.834Z,0.70
2019-05-05T15:44:13.462Z,0.70
2019-05-05T15:46:44.288Z,0.70
2019-05-05T15:49:14.723Z,0.70
2019-05-05T15:51:45.079Z,0.70
2019-05-05T15:54:15.362Z,0.70
2019-05-05T15:56:45.591Z,0.70
2019-05-05T15:59:15.977Z,0.70
2019-05-05T16:01:46.316Z,0.70
2019-05-05T16:04:16.626Z,0.70
2019-05-05T16:06:46.979Z,0.70
2019-05-05T16:09:17.239Z,0.70
2019-05-05T16:11:47.480Z,0.70
2019-05-05T16:14:17.805Z,0.60
2019-05-05T16:17:06.072Z,0.70
2019-05-05T16:20:04.532Z,0.80
2019-05-05T16:22:37.657Z,0.70
2019-05-05T16:25:14.040Z,0.70
2019-05-05T16:27:44.794Z,0.70
2019-05-05T16:30:16.378Z,0.70
2019-05-05T16:32:46.592Z,0.70
2019-05-05T16:35:18.480Z,0.70
2019-05-05T16:37:48.717Z,0.60
2019-05-05T16:40:19.032Z,0.70
2019-05-05T16:42:49.384Z,0.70
2019-05-05T16:45:20.174Z,0.60
2019-05-05T16:47:50.438Z,0.60
2019-05-05T16:50:20.791Z,0.60
2019-05-05T16:53:00.070Z,0.60
2019-05-05T16:55:53.820Z,0.60
2019-05-05T16:58:24.333Z,0.60
2019-05-05T17:00:54.567Z,0.70
2019-05-05T17:03:24.845Z,0.70
2019-05-05T17:05:58.092Z,0.70
2019-05-05T17:08:27.181Z,0.70
2019-05-05T17:10:57.498Z,0.60
2019-05-05T17:13:54.491Z,0.60
2019-05-05T17:16:47.574Z,0.70
2019-05-05T17:19:24.635Z,0.70
2019-05-05T17:22:29.250Z,0.60
2019-05-05T17:25:01.513Z,0.70
2019-05-05T17:27:44.858Z,0.70
2019-05-05T17:30:04.463Z,0.70
2019-05-05T17:32:34.941Z,0.70
2019-05-05T17:35:05.315Z,0.67
2019-05-05T17:37:38.337Z,0.60
2019-05-05T17:40:15.363Z,0.70
2019-05-05T17:42:54.314Z,0.70
2019-05-05T17:45:44.028Z,0.63
2019-05-05T17:48:27.073Z,0.60
2019-05-05T17:51:07.239Z,0.60
2019-05-05T17:53:50.751Z,0.70
2019-05-05T17:56:21.007Z,0.70
2019-05-05T17:58:51.354Z,0.60
2019-05-05T18:01:21.615Z,0.70
2019-05-05T18:03:51.886Z,0.60
2019-05-05T18:06:45.429Z,0.70
2019-05-05T18:09:18.780Z,0.70
2019-05-05T18:12:13.912Z,0.60
2019-05-05T18:14:44.465Z,0.70
2019-05-05T18:17:14.761Z,0.70
2019-05-05T18:19:45.131Z,0.70
2019-05-05T18:22:15.861Z,0.70
2019-05-05T18:24:46.141Z,0.70
2019-05-05T18:27:16.348Z,0.70
2019-05-05T18:29:46.681Z,0.63
2019-05-05T18:32:17.080Z,0.70
2019-05-05T18:34:47.436Z,0.70
2019-05-05T18:37:17.658Z,0.70
2019-05-05T18:39:47.985Z,0.70
2019-05-05T18:42:22.069Z,0.70
2019-05-05T18:44:56.449Z,0.70
2019-05-05T18:47:26.775Z,0.70
2019-05-05T18:49:57.053Z,0.70
2019-05-05T18:52:27.359Z,0.70
2019-05-05T18:54:58.096Z,0.70
2019-05-05T18:57:28.360Z,0.70
2019-05-05T18:59:58.622Z,0.60
2019-05-05T19:03:00.248Z,0.70
2019-05-05T19:05:55.972Z,0.70
2019-05-05T19:08:32.202Z,0.70
2019-05-05T19:11:03.729Z,0.70
2019-05-05T19:13:34.154Z,0.70
2019-05-05T19:16:07.792Z,0.60
2019-05-05T19:18:38.020Z,0.70
2019-05-05T19:21:24.884Z,0.70
2019-05-05T19:23:55.322Z,0.70
2019-05-05T19:26:25.538Z,0.70
2019-05-05T19:28:55.820Z,0.70
2019-05-05T19:31:26.048Z,0.70
2019-05-05T19:33:56.277Z,0.70
2019-05-05T19:36:27.519Z,0.70
2019-05-05T19:38:57.916Z,0.70
2019-05-05T19:41:28.129Z,0.70
2019-05-05T19:43:58.340Z,0.70
2019-05-05T19:46:40.928Z,0.70
2019-05-05T19:49:14.906Z,0.77
2019-05-05T19:51:45.382Z,0.70
2019-05-05T19:54:15.526Z,0.80
2019-05-05T19:56:45.855Z,0.80
2019-05-05T19:59:16.071Z,0.70
2019-05-05T20:01:46.376Z,0.70
2019-05-05T20:04:16.580Z,0.70
2019-05-05T20:06:46.825Z,0.80
2019-05-05T20:09:17.064Z,0.70
2019-05-05T20:11:47.385Z,0.70
2019-05-05T20:14:17.674Z,0.70
2019-05-05T20:17:06.984Z,0.80
2019-05-05T20:19:41.254Z,0.80
2019-05-05T20:22:11.550Z,0.70
2019-05-05T20:24:44.164Z,0.80
2019-05-05T20:27:14.144Z,0.80
2019-05-05T20:29:44.712Z,0.70
2019-05-05T20:32:17.242Z,0.80
2019-05-05T20:35:09.738Z,0.80
2019-05-05T20:37:47.114Z,0.70
2019-05-05T20:40:18.767Z,0.80
2019-05-05T20:42:49.149Z,0.70
2019-05-05T20:45:23.847Z,0.80
2019-05-05T20:47:54.252Z,0.80
2019-05-05T20:50:24.767Z,0.70
2019-05-05T20:52:55.154Z,0.80
2019-05-05T20:55:25.923Z,0.70
2019-05-05T20:57:56.482Z,0.73
2019-05-05T21:00:26.636Z,0.80
2019-05-05T21:02:57.070Z,0.70
2019-05-05T21:05:27.451Z,0.70
2019-05-05T21:07:57.878Z,0.80
2019-05-05T21:10:28.160Z,0.80
2019-05-05T21:12:58.466Z,0.80
2019-05-05T21:15:28.684Z,0.70
2019-05-05T21:17:59.040Z,0.80
2019-05-05T21:20:29.216Z,0.80
2019-05-05T21:23:14.408Z,0.70
2019-05-05T21:25:51.485Z,0.80
2019-05-05T21:28:23.911Z,0.73
2019-05-05T21:30:54.059Z,0.80
2019-05-05T21:33:24.550Z,0.80
2019-05-05T21:35:55.203Z,0.80
2019-05-05T21:38:25.518Z,0.80
2019-05-05T21:40:55.744Z,0.80
2019-05-05T21:43:26.103Z,0.80
2019-05-05T21:45:56.396Z,0.80
2019-05-05T21:48:26.703Z,0.80
2019-05-05T21:51:06.180Z,0.80
2019-05-05T21:53:50.711Z,0.80
2019-05-05T21:56:37.587Z,0.70
2019-05-05T21:59:07.785Z,0.80
2019-05-05T22:01:40.402Z,0.80
2019-05-05T22:04:12.638Z,0.80
2019-05-05T22:06:42.327Z,0.80
2019-05-05T22:09:14.686Z,0.80
2019-05-05T22:11:44.779Z,0.80
2019-05-05T22:14:15.079Z,0.80
2019-05-05T22:17:04.347Z,0.80
2019-05-05T22:19:37.145Z,0.80
2019-05-05T22:22:08.722Z,0.80
2019-05-05T22:24:39.004Z,0.70
2019-05-05T22:27:09.218Z,0.70
2019-05-05T22:29:39.471Z,0.80
2019-05-05T22:32:09.776Z,0.80
2019-05-05T22:34:40.150Z,0.80
2019-05-05T22:37:10.388Z,0.80
2019-05-05T22:39:40.749Z,0.80
2019-05-05T22:42:11.038Z,0.80
2019-05-05T22:44:41.515Z,0.80
2019-05-05T22:47:13.792Z,0.80
2019-05-05T22:49:44.323Z,0.80
2019-05-05T22:52:14.857Z,0.70
2019-05-05T22:54:45.095Z,0.80
2019-05-05T22:57:20.811Z,0.80
2019-05-05T22:59:51.191Z,0.80
2019-05-05T23:02:24.459Z,0.80
2019-05-05T23:05:06.275Z,0.80
2019-05-05T23:07:36.564Z,0.80
2019-05-05T23:10:07.029Z,0.80
2019-05-05T23:12:37.235Z,0.80
2019-05-05T23:15:08.203Z,0.80
2019-05-05T23:17:49.716Z,0.80
2019-05-05T23:21:01.013Z,0.80
2019-05-05T23:23:57.375Z,0.80
2019-05-05T23:26:29.177Z,0.80
2019-05-05T23:28:59.331Z,0.80
2019-05-05T23:31:29.601Z,0.80
2019-05-05T23:33:59.801Z,0.77
2019-05-05T23:36:30.045Z,0.80
2019-05-05T23:39:00.361Z,0.80
2019-05-05T23:41:30.617Z,0.80
2019-05-05T23:44:00.791Z,0.90
2019-05-05T23:46:31.156Z,0.80
2019-05-05T23:49:01.499Z,0.80
2019-05-05T23:51:31.693Z,0.80
2019-05-05T23:54:04.060Z,0.80
2019-05-05T23:56:34.938Z,0.90
2019-05-05T23:59:05.548Z,0.80
